Terminal Aerodrome Forecast
Issued by NWS

Home | Current Version | Previous Version | Text Only | Print | Product List | Glossary On
Versions: 1 2 3 4 5 6 7 8 9 10 11 12 13
491
FTUS43 KIWX 201720
TAFSBN
TAF
KSBN 201720Z 2018/2118 19007KT P6SM SCT040 SCT250
     FM210200 16005KT P6SM BKN060
     FM210700 18005KT 6SM -SHRA VCTS BKN040CB
     FM211200 21008KT P6SM BKN040=

USA.gov is the U.S. government's official web portal to all federal, state and local government web resources and services.